createdAt,value
2018-04-19T00:02:55.660Z,29.63
2018-04-19T00:06:58.200Z,25.10
2018-04-19T00:11:01.506Z,30.53
2018-04-19T00:15:04.056Z,27.23
2018-04-19T00:19:06.612Z,33.37
2018-04-19T00:23:09.140Z,34.60
2018-04-19T00:27:11.683Z,33.83
2018-04-19T00:31:14.250Z,33.17
2018-04-19T00:35:16.792Z,28.00
2018-04-19T00:39:19.315Z,36.00
2018-04-19T00:43:21.863Z,30.80
2018-04-19T00:47:24.412Z,35.80
2018-04-19T00:51:26.963Z,30.33
2018-04-19T00:55:29.500Z,26.67
2018-04-19T00:59:32.042Z,29.67
2018-04-19T01:03:34.596Z,29.10
2018-04-19T01:07:37.907Z,33.27
2018-04-19T01:11:41.215Z,39.77
2018-04-19T01:15:44.523Z,36.00
2018-04-19T01:19:47.043Z,32.07
2018-04-19T01:23:49.584Z,34.20
2018-04-19T01:27:52.897Z,34.67
2018-04-19T01:31:55.444Z,32.00
2018-04-19T01:36:09.715Z,34.80
2018-04-19T01:40:12.251Z,30.20
2018-04-19T01:44:14.770Z,28.10
2018-04-19T01:48:17.316Z,36.37
2018-04-19T01:52:19.850Z,34.00
2018-04-19T01:56:22.396Z,38.20
2018-04-19T02:00:24.944Z,36.53
2018-04-19T02:04:27.473Z,33.33
2018-04-19T02:08:30.016Z,27.10
2018-04-19T02:12:33.320Z,33.47
2018-04-19T02:16:35.883Z,32.13
2018-04-19T02:20:39.199Z,30.63
2018-04-19T02:24:42.490Z,46.17
2018-04-19T02:28:45.790Z,45.57
2018-04-19T02:32:48.337Z,28.77
2018-04-19T02:36:50.887Z,26.87
2018-04-19T02:40:53.423Z,30.03
2018-04-19T02:44:55.967Z,27.93
2018-04-19T02:48:58.520Z,29.67
2018-04-19T02:53:01.839Z,31.13
2018-04-19T02:57:05.457Z,32.37
2018-04-19T03:01:08.084Z,24.70
2018-04-19T03:05:10.661Z,27.00
2018-04-19T03:09:13.261Z,29.70
2018-04-19T03:13:15.855Z,36.43
2018-04-19T03:17:18.491Z,35.40
2018-04-19T03:21:21.578Z,26.53
2018-04-19T03:25:24.209Z,30.37
2018-04-19T03:29:26.838Z,35.33
2018-04-19T03:33:30.242Z,41.80
2018-04-19T03:37:32.977Z,21.90
2018-04-19T03:41:35.587Z,24.33
2018-04-19T03:45:38.155Z,20.13
2018-04-19T03:49:40.752Z,26.43
2018-04-19T03:53:43.349Z,29.13
2018-04-19T03:57:46.000Z,37.27
2018-04-19T04:01:48.589Z,31.57
2018-04-19T04:05:51.948Z,32.80
2018-04-19T04:09:54.532Z,23.30
2018-04-19T04:13:57.101Z,20.60
2018-04-19T04:22:44.496Z,27.73
2018-04-19T04:26:47.810Z,26.37
2018-04-19T04:30:50.366Z,34.57
2018-04-19T04:34:52.912Z,34.50
2018-04-19T04:38:55.447Z,31.23
2018-04-19T04:42:58.790Z,26.57
2018-04-19T04:47:01.323Z,28.20
2018-04-19T04:51:03.874Z,29.50
2018-04-19T04:55:06.419Z,28.63
2018-04-19T04:59:09.723Z,38.73
2018-04-19T05:03:13.034Z,32.87
2018-04-19T05:07:15.560Z,39.00
2018-04-19T05:11:18.095Z,43.00
2018-04-19T05:15:21.392Z,43.90
2018-04-19T05:19:24.690Z,38.57
2018-04-19T05:23:27.986Z,44.53
2018-04-19T05:27:30.505Z,43.53
2018-04-19T05:31:33.041Z,48.57
2018-04-19T05:35:35.579Z,46.03
2018-04-19T05:39:38.117Z,47.00
2018-04-19T05:43:40.770Z,57.77
2018-04-19T05:47:43.312Z,47.90
2018-04-19T05:51:46.606Z,47.17
2018-04-19T05:55:49.907Z,45.33
2018-04-19T05:59:53.210Z,44.53
2018-04-19T06:03:56.506Z,48.33
2018-04-19T06:07:59.014Z,47.07
2018-04-19T06:12:01.544Z,56.70
2018-04-19T06:16:04.075Z,47.07
2018-04-19T06:20:06.606Z,43.20
2018-04-19T06:24:09.820Z,35.33
2018-04-19T06:28:12.336Z,52.27
2018-04-19T06:32:14.875Z,57.60
2018-04-19T06:36:17.417Z,55.20
2018-04-19T06:40:19.952Z,44.53
2018-04-19T06:44:22.500Z,47.90
2018-04-19T06:48:25.015Z,47.23
2018-04-19T06:52:28.551Z,52.17
2018-04-19T06:56:31.079Z,51.50
2018-04-19T07:00:33.604Z,46.10
2018-04-19T07:04:36.140Z,43.90
2018-04-19T07:08:38.658Z,42.33
2018-04-19T07:12:41.205Z,53.27
2018-04-19T07:16:43.751Z,38.57
2018-04-19T07:20:46.289Z,38.27
2018-04-19T07:24:48.831Z,40.73
2018-04-19T07:28:51.348Z,41.63
2018-04-19T07:32:53.946Z,36.17
2018-04-19T07:36:56.475Z,36.83
2018-04-19T07:40:59.008Z,38.07
2018-04-19T07:45:01.556Z,36.57
2018-04-19T07:49:04.082Z,33.27
2018-04-19T07:53:06.615Z,35.37
2018-04-19T07:57:09.158Z,32.70
2018-04-19T08:01:11.700Z,34.17
2018-04-19T08:05:14.281Z,35.10
2018-04-19T08:09:16.788Z,36.70
2018-04-19T08:13:20.095Z,27.83
2018-04-19T08:17:23.394Z,28.17
2018-04-19T08:21:26.704Z,27.40
2018-04-19T08:25:29.256Z,22.77
2018-04-19T08:29:32.131Z,26.17
2018-04-19T08:33:34.651Z,25.10
2018-04-19T08:37:37.976Z,22.80
2018-04-19T08:41:40.691Z,23.70
2018-04-19T08:45:43.263Z,22.50
2018-04-19T08:49:45.808Z,21.57
2018-04-19T08:53:49.083Z,25.87
2018-04-19T08:57:51.625Z,21.90
2018-04-19T09:01:54.176Z,24.90
2018-04-19T09:05:56.712Z,20.23
2018-04-19T09:09:59.247Z,25.30
2018-04-19T09:14:01.755Z,21.20
2018-04-19T09:18:04.289Z,22.63
2018-04-19T09:22:06.828Z,16.97
2018-04-19T09:26:09.363Z,24.50
2018-04-19T09:30:11.890Z,20.40
2018-04-19T09:34:14.427Z,23.60
2018-04-19T09:38:16.970Z,20.37
2018-04-19T09:42:19.515Z,18.73
2018-04-19T09:46:22.047Z,18.37
2018-04-19T09:50:24.579Z,23.27
2018-04-19T09:54:27.094Z,18.13
2018-04-19T09:58:30.440Z,18.90
2018-04-19T10:02:34.843Z,15.67
2018-04-19T10:06:38.147Z,22.50
2018-04-19T10:10:40.679Z,16.67
2018-04-19T10:14:43.215Z,16.37
2018-04-19T10:18:45.752Z,17.70
2018-04-19T10:22:48.286Z,12.77
2018-04-19T10:26:50.838Z,13.03
2018-04-19T10:30:53.380Z,12.47
2018-04-19T10:34:55.890Z,14.33
2018-04-19T10:38:58.427Z,12.00
2018-04-19T10:43:00.956Z,11.80
2018-04-19T10:47:03.587Z,10.23
2018-04-19T10:51:06.033Z,10.77
2018-04-19T10:55:08.572Z,12.67
2018-04-19T10:59:11.091Z,18.07
2018-04-19T11:03:13.628Z,24.50
2018-04-19T11:07:16.154Z,23.17
2018-04-19T11:11:18.692Z,24.93
2018-04-19T11:15:21.236Z,18.03
2018-04-19T11:19:23.755Z,27.13
2018-04-19T11:23:27.808Z,23.53
2018-04-19T11:27:30.356Z,22.20
2018-04-19T11:31:33.663Z,25.43
2018-04-19T11:35:36.966Z,20.27
2018-04-19T11:39:40.242Z,22.83
2018-04-19T11:43:42.776Z,21.97
2018-04-19T11:47:45.309Z,21.30
2018-04-19T11:51:47.852Z,18.97
2018-04-19T11:55:50.889Z,22.80
2018-04-19T11:59:53.508Z,22.23
2018-04-19T12:03:56.043Z,23.33
2018-04-19T12:07:58.584Z,18.33
2018-04-19T12:12:01.115Z,21.87
2018-04-19T12:16:03.669Z,14.10
2018-04-19T12:20:06.179Z,15.40
2018-04-19T12:24:08.712Z,15.23
2018-04-19T12:28:12.012Z,19.47
2018-04-19T12:32:15.308Z,20.07
2018-04-19T12:36:18.612Z,22.03
2018-04-19T12:40:21.890Z,21.60
2018-04-19T12:44:24.415Z,28.10
2018-04-19T12:48:26.947Z,22.80
2018-04-19T12:52:29.486Z,24.23
2018-04-19T12:56:32.031Z,20.10
2018-04-19T13:00:35.119Z,25.70
2018-04-19T13:04:37.650Z,20.73
2018-04-19T13:08:40.179Z,22.53
2018-04-19T13:12:42.712Z,22.60
2018-04-19T13:16:46.560Z,18.00
2018-04-19T13:20:49.111Z,17.93
2018-04-19T13:24:52.470Z,21.50
2018-04-19T13:28:55.154Z,19.47
2018-04-19T13:32:57.704Z,20.77
2018-04-19T13:37:00.246Z,17.37
2018-04-19T13:41:02.796Z,17.70
2018-04-19T13:45:05.320Z,15.00
2018-04-19T13:49:07.861Z,17.37
2018-04-19T13:53:10.399Z,23.87
2018-04-19T13:57:13.709Z,14.33
2018-04-19T14:01:16.249Z,20.08
2018-04-19T14:05:18.769Z,12.00
2018-04-19T14:09:22.062Z,11.27
2018-04-19T14:13:24.592Z,12.10
2018-04-19T14:17:27.148Z,13.83
2018-04-19T14:21:30.460Z,13.77
2018-04-19T14:25:33.735Z,11.73
2018-04-19T14:29:36.268Z,13.90
2018-04-19T14:33:38.807Z,14.43
2018-04-19T14:37:41.335Z,16.30
2018-04-19T14:41:43.876Z,15.27
2018-04-19T14:45:46.392Z,14.23
2018-04-19T14:49:49.696Z,12.63
2018-04-19T14:53:52.986Z,15.27
2018-04-19T14:57:56.280Z,13.77
2018-04-19T15:01:59.582Z,15.77
2018-04-19T15:06:02.103Z,15.17
2018-04-19T15:10:04.689Z,14.17
2018-04-19T15:14:07.220Z,10.97
2018-04-19T15:18:09.754Z,9.88
2018-04-19T15:22:12.284Z,10.27
2018-04-19T15:26:14.810Z,12.67
2018-04-19T15:30:17.356Z,13.87
2018-04-19T15:34:19.891Z,14.37
2018-04-19T15:38:22.435Z,15.13
2018-04-19T15:42:24.984Z,17.53
2018-04-19T15:46:27.498Z,16.57
2018-04-19T15:50:30.029Z,16.23
2018-04-19T15:54:32.569Z,22.03
2018-04-19T15:58:35.108Z,18.73
2018-04-19T16:02:37.711Z,23.17
2018-04-19T16:06:40.967Z,23.58
2018-04-19T16:10:44.261Z,21.17
2018-04-19T16:14:48.349Z,22.50
2018-04-19T16:18:50.914Z,22.55
2018-04-19T16:22:53.633Z,22.92
2018-04-19T16:26:56.627Z,24.35
2018-04-19T16:30:59.115Z,31.17
2018-04-19T16:35:01.847Z,31.75
2018-04-19T16:39:04.397Z,26.45
2018-04-19T16:43:06.934Z,29.67
2018-04-19T16:47:09.470Z,24.52
2018-04-19T16:51:11.979Z,27.58
2018-04-19T16:55:15.284Z,23.10
2018-04-19T16:59:17.829Z,27.13
2018-04-19T17:03:20.354Z,28.00
2018-04-19T17:07:23.655Z,27.03
2018-04-19T17:11:26.177Z,28.25
2018-04-19T17:15:28.707Z,29.17
2018-04-19T17:19:32.011Z,29.93
2018-04-19T17:23:34.543Z,25.87
2018-04-19T17:27:37.077Z,22.70
2018-04-19T17:31:39.598Z,26.60
2018-04-19T17:35:42.127Z,18.60
2018-04-19T17:39:44.659Z,15.53
2018-04-19T17:43:47.196Z,14.00
2018-04-19T17:47:49.784Z,18.07
2018-04-19T17:51:52.304Z,23.87
2018-04-19T17:55:55.599Z,26.47
2018-04-19T17:59:58.899Z,21.13
2018-04-19T18:04:02.194Z,19.67
2018-04-19T18:08:04.728Z,25.03
2018-04-19T18:12:07.248Z,21.93
2018-04-19T18:16:09.783Z,24.93
2018-04-19T18:20:12.319Z,39.70
2018-04-19T18:24:14.857Z,27.83
2018-04-19T18:28:17.396Z,24.53
2018-04-19T18:32:19.911Z,27.83
2018-04-19T18:36:22.445Z,28.20
2018-04-19T18:40:24.982Z,25.13
2018-04-19T18:44:27.521Z,28.10
2018-04-19T18:48:30.060Z,28.67
2018-04-19T18:52:32.592Z,29.17
2018-04-19T18:56:35.144Z,28.43
2018-04-19T19:00:37.709Z,22.27
2018-04-19T19:04:40.297Z,28.05
2018-04-19T19:08:42.836Z,28.97
2018-04-19T19:12:45.371Z,25.37
2018-04-19T19:16:48.013Z,30.53
2018-04-19T19:20:50.560Z,30.07
2018-04-19T19:24:53.099Z,30.60
2018-04-19T19:28:55.631Z,26.67
2018-04-19T19:32:58.153Z,29.90
2018-04-19T19:37:00.693Z,26.10
2018-04-19T19:41:03.238Z,28.43
2018-04-19T19:45:05.973Z,29.13
2018-04-19T19:49:08.520Z,30.57
2018-04-19T19:53:11.805Z,34.83
2018-04-19T19:57:14.356Z,29.87
2018-04-19T20:01:16.899Z,29.03
2018-04-19T20:05:19.432Z,36.23
2018-04-19T20:09:22.573Z,33.97
2018-04-19T20:13:25.342Z,33.90
2018-04-19T20:17:27.861Z,33.90
2018-04-19T20:21:30.410Z,29.77
2018-04-19T20:25:32.943Z,27.37
2018-04-19T20:29:35.482Z,27.87
2018-04-19T20:33:38.020Z,34.77
2018-04-19T20:37:40.545Z,29.70
2018-04-19T20:41:43.090Z,33.10
2018-04-19T20:45:45.637Z,30.37
2018-04-19T20:49:48.944Z,27.07
2018-04-19T20:53:52.245Z,26.93
2018-04-19T20:57:55.545Z,27.00
2018-04-19T21:01:58.851Z,30.20
2018-04-19T21:06:02.181Z,27.50
2018-04-19T21:10:04.720Z,27.20
2018-04-19T21:14:07.260Z,26.60
2018-04-19T21:18:09.784Z,30.87
2018-04-19T21:22:12.328Z,27.10
2018-04-19T21:26:14.863Z,24.13
2018-04-19T21:30:17.394Z,30.93
2018-04-19T21:34:19.952Z,29.93
2018-04-19T21:38:22.467Z,28.57
2018-04-19T21:42:24.998Z,32.10
2018-04-19T21:46:27.536Z,25.97
2018-04-19T21:50:30.083Z,27.63
2018-04-19T21:54:32.761Z,28.90
2018-04-19T21:58:35.280Z,30.60
2018-04-19T22:02:37.820Z,29.53
2018-04-19T22:06:41.315Z,26.73
2018-04-19T22:10:43.844Z,30.70
2018-04-19T22:14:47.158Z,29.07
2018-04-19T22:18:51.005Z,27.80
2018-04-19T22:22:53.573Z,32.27
2018-04-19T22:26:56.120Z,26.30
2018-04-19T22:30:59.425Z,28.27
2018-04-19T22:35:01.955Z,26.60
2018-04-19T22:39:04.479Z,26.17
2018-04-19T22:43:07.005Z,29.40
2018-04-19T22:47:09.546Z,29.63
2018-04-19T22:51:12.080Z,30.50
2018-04-19T22:55:15.514Z,29.73
2018-04-19T22:59:18.050Z,26.43
2018-04-19T23:03:21.330Z,31.67
2018-04-19T23:07:23.869Z,32.70
2018-04-19T23:11:26.396Z,27.03
2018-04-19T23:15:28.923Z,29.50
2018-04-19T23:19:31.447Z,21.40
2018-04-19T23:23:33.956Z,23.10
2018-04-19T23:27:36.493Z,24.00
2018-04-19T23:31:39.852Z,27.13
2018-04-19T23:35:42.391Z,28.13
2018-04-19T23:39:44.919Z,24.57
2018-04-19T23:43:47.442Z,19.73
2018-04-19T23:47:49.964Z,24.07
2018-04-19T23:51:52.495Z,24.97
2018-04-19T23:55:55.022Z,24.03
2018-04-19T23:59:57.567Z,27.87
